sensor_id;sensor_type;location;lat;lon;timestamp;P1;durP1;ratioP1;P2;durP2;ratioP2
37593;SDS011;23441;50.856;6.076;2024-01-15T00:01:17;43.47;;;15.37;;
37593;SDS011;23441;50.856;6.076;2024-01-15T00:04:03;44.17;;;15.03;;
37593;SDS011;23441;50.856;6.076;2024-01-15T00:06:49;40.20;;;15.53;;
37593;SDS011;23441;50.856;6.076;2024-01-15T00:09:35;42.60;;;15.80;;
37593;SDS011;23441;50.856;6.076;2024-01-15T00:12:21;39.83;;;14.70;;
37593;SDS011;23441;50.856;6.076;2024-01-15T00:15:07;38.10;;;14.80;;
37593;SDS011;23441;50.856;6.076;2024-01-15T00:17:54;47.63;;;16.37;;
37593;SDS011;23441;50.856;6.076;2024-01-15T00:20:41;44.57;;;15.83;;
37593;SDS011;23441;50.856;6.076;2024-01-15T00:23:27;39.10;;;15.20;;
37593;SDS011;23441;50.856;6.076;2024-01-15T00:26:13;47.80;;;16.53;;
37593;SDS011;23441;50.856;6.076;2024-01-15T00:28:59;42.60;;;16.20;;
37593;SDS011;23441;50.856;6.076;2024-01-15T00:31:45;50.50;;;16.67;;
37593;SDS011;23441;50.856;6.076;2024-01-15T00:34:31;43.53;;;16.10;;
37593;SDS011;23441;50.856;6.076;2024-01-15T00:37:16;36.40;;;14.33;;
37593;SDS011;23441;50.856;6.076;2024-01-15T00:40:03;40.80;;;16.40;;
37593;SDS011;23441;50.856;6.076;2024-01-15T00:42:50;49.07;;;16.33;;
37593;SDS011;23441;50.856;6.076;2024-01-15T00:45:36;44.33;;;15.80;;
37593;SDS011;23441;50.856;6.076;2024-01-15T00:48:22;45.60;;;15.93;;
37593;SDS011;23441;50.856;6.076;2024-01-15T00:51:08;32.97;;;14.80;;
37593;SDS011;23441;50.856;6.076;2024-01-15T00:53:54;45.53;;;16.27;;
37593;SDS011;23441;50.856;6.076;2024-01-15T00:56:40;43.27;;;16.43;;
37593;SDS011;23441;50.856;6.076;2024-01-15T00:59:26;37.37;;;13.67;;
37593;SDS011;23441;50.856;6.076;2024-01-15T01:02:12;37.70;;;14.50;;
37593;SDS011;23441;50.856;6.076;2024-01-15T01:04:58;45.87;;;15.20;;
37593;SDS011;23441;50.856;6.076;2024-01-15T01:07:44;44.57;;;15.30;;
37593;SDS011;23441;50.856;6.076;2024-01-15T01:10:30;41.70;;;14.80;;
37593;SDS011;23441;50.856;6.076;2024-01-15T01:13:15;36.03;;;14.77;;
37593;SDS011;23441;50.856;6.076;2024-01-15T01:16:01;35.90;;;14.03;;
37593;SDS011;23441;50.856;6.076;2024-01-15T01:18:48;42.87;;;15.93;;
37593;SDS011;23441;50.856;6.076;2024-01-15T01:21:34;48.13;;;15.77;;
37593;SDS011;23441;50.856;6.076;2024-01-15T01:24:20;43.70;;;15.70;;
37593;SDS011;23441;50.856;6.076;2024-01-15T01:27:06;42.63;;;16.77;;
37593;SDS011;23441;50.856;6.076;2024-01-15T01:29:52;37.97;;;15.00;;
37593;SDS011;23441;50.856;6.076;2024-01-15T01:32:38;43.17;;;15.73;;
37593;SDS011;23441;50.856;6.076;2024-01-15T01:35:24;42.37;;;16.73;;
37593;SDS011;23441;50.856;6.076;2024-01-15T01:38:10;44.53;;;16.83;;
37593;SDS011;23441;50.856;6.076;2024-01-15T01:40:56;47.27;;;17.53;;
37593;SDS011;23441;50.856;6.076;2024-01-15T01:43:42;46.03;;;16.53;;
37593;SDS011;23441;50.856;6.076;2024-01-15T01:46:28;45.70;;;18.17;;
37593;SDS011;23441;50.856;6.076;2024-01-15T01:49:15;44.07;;;17.63;;
37593;SDS011;23441;50.856;6.076;2024-01-15T01:52:01;44.60;;;17.90;;
37593;SDS011;23441;50.856;6.076;2024-01-15T01:54:50;46.17;;;17.13;;
37593;SDS011;23441;50.856;6.076;2024-01-15T01:57:37;51.93;;;18.63;;
37593;SDS011;23441;50.856;6.076;2024-01-15T02:00:24;41.13;;;16.40;;
37593;SDS011;23441;50.856;6.076;2024-01-15T02:03:10;53.47;;;20.17;;
37593;SDS011;23441;50.856;6.076;2024-01-15T02:05:56;47.10;;;17.60;;
37593;SDS011;23441;50.856;6.076;2024-01-15T02:08:43;41.30;;;17.43;;
37593;SDS011;23441;50.856;6.076;2024-01-15T02:11:29;46.77;;;18.53;;
37593;SDS011;23441;50.856;6.076;2024-01-15T02:14:15;48.97;;;18.40;;
37593;SDS011;23441;50.856;6.076;2024-01-15T02:17:01;50.03;;;19.17;;
37593;SDS011;23441;50.856;6.076;2024-01-15T02:19:47;44.50;;;18.03;;
37593;SDS011;23441;50.856;6.076;2024-01-15T02:22:33;42.87;;;17.27;;
37593;SDS011;23441;50.856;6.076;2024-01-15T02:25:19;49.27;;;19.70;;
37593;SDS011;23441;50.856;6.076;2024-01-15T02:28:06;43.23;;;18.73;;
37593;SDS011;23441;50.856;6.076;2024-01-15T02:30:54;46.87;;;17.80;;
37593;SDS011;23441;50.856;6.076;2024-01-15T02:33:40;43.97;;;18.40;;
37593;SDS011;23441;50.856;6.076;2024-01-15T02:36:27;50.90;;;18.73;;
37593;SDS011;23441;50.856;6.076;2024-01-15T02:39:13;47.70;;;17.37;;
37593;SDS011;23441;50.856;6.076;2024-01-15T02:41:59;43.43;;;16.80;;
37593;SDS011;23441;50.856;6.076;2024-01-15T02:44:45;43.63;;;17.67;;
37593;SDS011;23441;50.856;6.076;2024-01-15T02:47:31;44.33;;;18.33;;
37593;SDS011;23441;50.856;6.076;2024-01-15T02:50:17;41.30;;;16.33;;
37593;SDS011;23441;50.856;6.076;2024-01-15T02:53:03;39.83;;;16.57;;
37593;SDS011;23441;50.856;6.076;2024-01-15T02:55:49;38.93;;;16.43;;
37593;SDS011;23441;50.856;6.076;2024-01-15T02:58:35;37.70;;;15.57;;
37593;SDS011;23441;50.856;6.076;2024-01-15T03:01:21;33.63;;;13.37;;
37593;SDS011;23441;50.856;6.076;2024-01-15T03:04:07;34.50;;;14.30;;
37593;SDS011;23441;50.856;6.076;2024-01-15T03:06:53;38.43;;;15.27;;
37593;SDS011;23441;50.856;6.076;2024-01-15T03:09:39;36.83;;;16.87;;
37593;SDS011;23441;50.856;6.076;2024-01-15T03:12:25;33.90;;;16.37;;
37593;SDS011;23441;50.856;6.076;2024-01-15T03:15:11;43.23;;;17.27;;
37593;SDS011;23441;50.856;6.076;2024-01-15T03:17:57;40.37;;;17.07;;
37593;SDS011;23441;50.856;6.076;2024-01-15T03:20:42;39.03;;;16.70;;
37593;SDS011;23441;50.856;6.076;2024-01-15T03:23:28;40.77;;;17.90;;
37593;SDS011;23441;50.856;6.076;2024-01-15T03:26:14;42.77;;;17.93;;
37593;SDS011;23441;50.856;6.076;2024-01-15T03:29:00;41.80;;;17.30;;
37593;SDS011;23441;50.856;6.076;2024-01-15T03:31:46;40.30;;;16.77;;
37593;SDS011;23441;50.856;6.076;2024-01-15T03:34:32;40.40;;;16.13;;
37593;SDS011;23441;50.856;6.076;2024-01-15T03:37:18;39.13;;;17.17;;
37593;SDS011;23441;50.856;6.076;2024-01-15T03:40:05;37.77;;;16.73;;
37593;SDS011;23441;50.856;6.076;2024-01-15T03:42:51;38.07;;;17.00;;
37593;SDS011;23441;50.856;6.076;2024-01-15T03:45:37;41.57;;;17.23;;
37593;SDS011;23441;50.856;6.076;2024-01-15T03:48:23;38.63;;;17.17;;
37593;SDS011;23441;50.856;6.076;2024-01-15T03:51:09;34.13;;;16.97;;
37593;SDS011;23441;50.856;6.076;2024-01-15T03:53:55;40.80;;;17.37;;
37593;SDS011;23441;50.856;6.076;2024-01-15T03:56:41;40.60;;;17.10;;
37593;SDS011;23441;50.856;6.076;2024-01-15T03:59:27;42.67;;;16.30;;
37593;SDS011;23441;50.856;6.076;2024-01-15T04:02:13;35.87;;;16.80;;
37593;SDS011;23441;50.856;6.076;2024-01-15T04:04:59;36.60;;;14.93;;
37593;SDS011;23441;50.856;6.076;2024-01-15T04:07:45;40.07;;;17.97;;
37593;SDS011;23441;50.856;6.076;2024-01-15T04:10:31;41.87;;;18.10;;
37593;SDS011;23441;50.856;6.076;2024-01-15T04:13:17;37.90;;;18.07;;
37593;SDS011;23441;50.856;6.076;2024-01-15T04:16:03;37.83;;;16.73;;
37593;SDS011;23441;50.856;6.076;2024-01-15T04:18:50;32.40;;;15.13;;
37593;SDS011;23441;50.856;6.076;2024-01-15T04:21:35;37.30;;;16.50;;
37593;SDS011;23441;50.856;6.076;2024-01-15T04:24:21;36.30;;;16.17;;
37593;SDS011;23441;50.856;6.076;2024-01-15T04:27:07;34.67;;;15.53;;
37593;SDS011;23441;50.856;6.076;2024-01-15T04:29:53;37.77;;;16.10;;
37593;SDS011;23441;50.856;6.076;2024-01-15T04:32:39;29.37;;;13.93;;
37593;SDS011;23441;50.856;6.076;2024-01-15T04:35:25;36.07;;;16.13;;
37593;SDS011;23441;50.856;6.076;2024-01-15T04:38:11;32.93;;;16.07;;
37593;SDS011;23441;50.856;6.076;2024-01-15T04:40:57;39.30;;;18.03;;
37593;SDS011;23441;50.856;6.076;2024-01-15T04:43:43;37.77;;;16.50;;
37593;SDS011;23441;50.856;6.076;2024-01-15T04:46:29;40.67;;;17.33;;
37593;SDS011;23441;50.856;6.076;2024-01-15T04:49:15;39.03;;;17.33;;
37593;SDS011;23441;50.856;6.076;2024-01-15T04:52:00;37.43;;;16.47;;
37593;SDS011;23441;50.856;6.076;2024-01-15T04:54:47;41.20;;;17.70;;
37593;SDS011;23441;50.856;6.076;2024-01-15T04:57:33;41.87;;;17.33;;
37593;SDS011;23441;50.856;6.076;2024-01-15T05:00:19;36.57;;;17.47;;
37593;SDS011;23441;50.856;6.076;2024-01-15T05:03:05;36.53;;;15.93;;
37593;SDS011;23441;50.856;6.076;2024-01-15T05:05:51;41.57;;;17.37;;
37593;SDS011;23441;50.856;6.076;2024-01-15T05:08:37;42.07;;;16.67;;
37593;SDS011;23441;50.856;6.076;2024-01-15T05:11:23;34.63;;;16.93;;
37593;SDS011;23441;50.856;6.076;2024-01-15T05:14:09;37.57;;;16.73;;
37593;SDS011;23441;50.856;6.076;2024-01-15T05:16:55;32.53;;;14.03;;
37593;SDS011;23441;50.856;6.076;2024-01-15T05:19:41;38.17;;;17.07;;
37593;SDS011;23441;50.856;6.076;2024-01-15T05:22:27;35.97;;;16.73;;
37593;SDS011;23441;50.856;6.076;2024-01-15T05:25:13;32.67;;;14.83;;
37593;SDS011;23441;50.856;6.076;2024-01-15T05:27:59;31.83;;;15.63;;
37593;SDS011;23441;50.856;6.076;2024-01-15T05:30:45;41.47;;;16.53;;
37593;SDS011;23441;50.856;6.076;2024-01-15T05:33:31;33.23;;;14.40;;
37593;SDS011;23441;50.856;6.076;2024-01-15T05:36:17;34.37;;;15.20;;
37593;SDS011;23441;50.856;6.076;2024-01-15T05:39:03;32.60;;;15.30;;
37593;SDS011;23441;50.856;6.076;2024-01-15T05:41:49;29.33;;;14.50;;
37593;SDS011;23441;50.856;6.076;2024-01-15T05:44:35;34.40;;;15.20;;
37593;SDS011;23441;50.856;6.076;2024-01-15T05:47:21;32.90;;;14.77;;
37593;SDS011;23441;50.856;6.076;2024-01-15T05:50:07;37.50;;;16.47;;
37593;SDS011;23441;50.856;6.076;2024-01-15T05:52:53;35.60;;;15.23;;
37593;SDS011;23441;50.856;6.076;2024-01-15T05:55:39;37.10;;;15.70;;
37593;SDS011;23441;50.856;6.076;2024-01-15T05:58:25;31.97;;;14.57;;
37593;SDS011;23441;50.856;6.076;2024-01-15T06:01:11;35.77;;;15.80;;
37593;SDS011;23441;50.856;6.076;2024-01-15T06:03:57;37.50;;;15.67;;
37593;SDS011;23441;50.856;6.076;2024-01-15T06:06:43;35.70;;;15.53;;
37593;SDS011;23441;50.856;6.076;2024-01-15T06:09:29;36.10;;;15.03;;
37593;SDS011;23441;50.856;6.076;2024-01-15T06:12:15;34.53;;;15.60;;
37593;SDS011;23441;50.856;6.076;2024-01-15T06:15:01;35.27;;;15.47;;
37593;SDS011;23441;50.856;6.076;2024-01-15T06:17:47;41.87;;;13.90;;
37593;SDS011;23441;50.856;6.076;2024-01-15T06:20:33;36.20;;;14.77;;
37593;SDS011;23441;50.856;6.076;2024-01-15T06:23:19;33.73;;;15.77;;
37593;SDS011;23441;50.856;6.076;2024-01-15T06:26:05;33.27;;;15.30;;
37593;SDS011;23441;50.856;6.076;2024-01-15T06:28:51;40.60;;;17.53;;
37593;SDS011;23441;50.856;6.076;2024-01-15T06:31:37;38.37;;;17.87;;
37593;SDS011;23441;50.856;6.076;2024-01-15T06:34:23;46.30;;;16.87;;
37593;SDS011;23441;50.856;6.076;2024-01-15T06:37:08;44.20;;;20.57;;
37593;SDS011;23441;50.856;6.076;2024-01-15T06:39:54;38.73;;;18.60;;
37593;SDS011;23441;50.856;6.076;2024-01-15T06:42:40;44.80;;;20.07;;
37593;SDS011;23441;50.856;6.076;2024-01-15T06:45:26;41.03;;;18.80;;
37593;SDS011;23441;50.856;6.076;2024-01-15T06:48:12;40.13;;;19.63;;
37593;SDS011;23441;50.856;6.076;2024-01-15T06:51:01;49.40;;;19.27;;
37593;SDS011;23441;50.856;6.076;2024-01-15T06:53:48;41.47;;;18.60;;
37593;SDS011;23441;50.856;6.076;2024-01-15T06:56:34;45.03;;;20.07;;
37593;SDS011;23441;50.856;6.076;2024-01-15T06:59:20;40.83;;;19.20;;
37593;SDS011;23441;50.856;6.076;2024-01-15T07:02:06;39.83;;;19.33;;
37593;SDS011;23441;50.856;6.076;2024-01-15T07:04:52;42.73;;;19.77;;
37593;SDS011;23441;50.856;6.076;2024-01-15T07:07:38;44.37;;;19.37;;
37593;SDS011;23441;50.856;6.076;2024-01-15T07:10:24;46.17;;;20.27;;
37593;SDS011;23441;50.856;6.076;2024-01-15T07:13:11;45.97;;;20.03;;
37593;SDS011;23441;50.856;6.076;2024-01-15T07:15:57;39.43;;;18.50;;
37593;SDS011;23441;50.856;6.076;2024-01-15T07:18:43;41.70;;;19.40;;
37593;SDS011;23441;50.856;6.076;2024-01-15T07:21:29;41.80;;;19.83;;
37593;SDS011;23441;50.856;6.076;2024-01-15T07:24:15;43.60;;;18.27;;
37593;SDS011;23441;50.856;6.076;2024-01-15T07:27:01;40.50;;;18.43;;
37593;SDS011;23441;50.856;6.076;2024-01-15T07:29:47;42.13;;;19.10;;
37593;SDS011;23441;50.856;6.076;2024-01-15T07:32:34;36.10;;;17.63;;
37593;SDS011;23441;50.856;6.076;2024-01-15T07:35:20;35.13;;;15.63;;
37593;SDS011;23441;50.856;6.076;2024-01-15T07:38:06;32.30;;;15.87;;
37593;SDS011;23441;50.856;6.076;2024-01-15T07:40:52;30.50;;;15.93;;
37593;SDS011;23441;50.856;6.076;2024-01-15T07:43:39;37.40;;;16.20;;
37593;SDS011;23441;50.856;6.076;2024-01-15T07:46:25;32.40;;;15.40;;
37593;SDS011;23441;50.856;6.076;2024-01-15T07:49:11;28.67;;;14.63;;
37593;SDS011;23441;50.856;6.076;2024-01-15T07:51:57;30.63;;;14.50;;
37593;SDS011;23441;50.856;6.076;2024-01-15T07:54:43;22.87;;;12.10;;
37593;SDS011;23441;50.856;6.076;2024-01-15T07:57:29;27.93;;;12.23;;
37593;SDS011;23441;50.856;6.076;2024-01-15T08:00:15;22.50;;;12.20;;
37593;SDS011;23441;50.856;6.076;2024-01-15T08:03:01;31.93;;;12.57;;
37593;SDS011;23441;50.856;6.076;2024-01-15T08:05:48;26.37;;;11.03;;
37593;SDS011;23441;50.856;6.076;2024-01-15T08:08:37;25.37;;;10.73;;
37593;SDS011;23441;50.856;6.076;2024-01-15T08:11:23;20.90;;;10.60;;
37593;SDS011;23441;50.856;6.076;2024-01-15T08:14:09;19.57;;;9.83;;
37593;SDS011;23441;50.856;6.076;2024-01-15T08:16:56;24.17;;;10.80;;
37593;SDS011;23441;50.856;6.076;2024-01-15T08:19:42;23.57;;;10.77;;
37593;SDS011;23441;50.856;6.076;2024-01-15T08:22:29;18.47;;;9.03;;
37593;SDS011;23441;50.856;6.076;2024-01-15T08:25:15;18.37;;;10.03;;
37593;SDS011;23441;50.856;6.076;2024-01-15T08:28:01;19.70;;;9.50;;
37593;SDS011;23441;50.856;6.076;2024-01-15T08:30:47;24.80;;;10.67;;
37593;SDS011;23441;50.856;6.076;2024-01-15T08:33:33;22.13;;;10.43;;
37593;SDS011;23441;50.856;6.076;2024-01-15T08:36:19;18.50;;;9.33;;
37593;SDS011;23441;50.856;6.076;2024-01-15T08:39:04;22.20;;;10.03;;
37593;SDS011;23441;50.856;6.076;2024-01-15T08:41:50;21.83;;;10.83;;
37593;SDS011;23441;50.856;6.076;2024-01-15T08:44:36;20.97;;;9.90;;
37593;SDS011;23441;50.856;6.076;2024-01-15T08:47:24;19.23;;;10.10;;
37593;SDS011;23441;50.856;6.076;2024-01-15T08:50:11;20.27;;;9.77;;
37593;SDS011;23441;50.856;6.076;2024-01-15T08:52:57;20.57;;;10.90;;
37593;SDS011;23441;50.856;6.076;2024-01-15T08:55:43;16.00;;;9.03;;
37593;SDS011;23441;50.856;6.076;2024-01-15T08:58:29;18.50;;;9.53;;
37593;SDS011;23441;50.856;6.076;2024-01-15T09:01:15;14.77;;;8.17;;
37593;SDS011;23441;50.856;6.076;2024-01-15T09:04:02;15.40;;;8.23;;
37593;SDS011;23441;50.856;6.076;2024-01-15T09:06:48;19.07;;;10.00;;
37593;SDS011;23441;50.856;6.076;2024-01-15T09:09:34;15.43;;;8.70;;
37593;SDS011;23441;50.856;6.076;2024-01-15T09:12:21;17.10;;;8.23;;
37593;SDS011;23441;50.856;6.076;2024-01-15T09:15:07;17.53;;;10.13;;
37593;SDS011;23441;50.856;6.076;2024-01-15T09:17:53;17.47;;;8.40;;
37593;SDS011;23441;50.856;6.076;2024-01-15T09:20:39;15.07;;;8.17;;
37593;SDS011;23441;50.856;6.076;2024-01-15T09:23:25;17.60;;;7.97;;
37593;SDS011;23441;50.856;6.076;2024-01-15T09:26:11;14.27;;;8.07;;
37593;SDS011;23441;50.856;6.076;2024-01-15T09:28:57;16.00;;;7.47;;
37593;SDS011;23441;50.856;6.076;2024-01-15T09:31:43;10.53;;;6.63;;
37593;SDS011;23441;50.856;6.076;2024-01-15T09:34:29;14.10;;;7.60;;
37593;SDS011;23441;50.856;6.076;2024-01-15T09:37:15;13.60;;;7.47;;
37593;SDS011;23441;50.856;6.076;2024-01-15T09:40:01;12.67;;;8.07;;
37593;SDS011;23441;50.856;6.076;2024-01-15T09:42:48;12.13;;;6.97;;
37593;SDS011;23441;50.856;6.076;2024-01-15T09:45:35;10.77;;;6.77;;
37593;SDS011;23441;50.856;6.076;2024-01-15T09:48:21;14.07;;;7.07;;
37593;SDS011;23441;50.856;6.076;2024-01-15T09:51:07;12.33;;;6.57;;
37593;SDS011;23441;50.856;6.076;2024-01-15T09:53:54;11.93;;;6.30;;
37593;SDS011;23441;50.856;6.076;2024-01-15T09:56:40;15.13;;;7.40;;
37593;SDS011;23441;50.856;6.076;2024-01-15T09:59:27;12.27;;;7.00;;
37593;SDS011;23441;50.856;6.076;2024-01-15T10:02:13;12.73;;;7.20;;
37593;SDS011;23441;50.856;6.076;2024-01-15T10:05:03;12.13;;;7.03;;
37593;SDS011;23441;50.856;6.076;2024-01-15T10:07:49;13.27;;;7.03;;
37593;SDS011;23441;50.856;6.076;2024-01-15T10:10:36;14.33;;;7.17;;
37593;SDS011;23441;50.856;6.076;2024-01-15T10:13:23;12.30;;;7.17;;
37593;SDS011;23441;50.856;6.076;2024-01-15T10:16:09;14.77;;;7.67;;
37593;SDS011;23441;50.856;6.076;2024-01-15T10:18:55;17.17;;;8.43;;
37593;SDS011;23441;50.856;6.076;2024-01-15T10:21:40;22.77;;;8.53;;
37593;SDS011;23441;50.856;6.076;2024-01-15T10:24:26;15.23;;;8.97;;
37593;SDS011;23441;50.856;6.076;2024-01-15T10:27:14;18.43;;;9.13;;
37593;SDS011;23441;50.856;6.076;2024-01-15T10:30:00;15.37;;;9.13;;
37593;SDS011;23441;50.856;6.076;2024-01-15T10:32:57;16.37;;;8.10;;
37593;SDS011;23441;50.856;6.076;2024-01-15T10:35:46;16.77;;;9.23;;
37593;SDS011;23441;50.856;6.076;2024-01-15T10:38:32;16.57;;;8.00;;
37593;SDS011;23441;50.856;6.076;2024-01-15T10:41:18;17.80;;;7.43;;
37593;SDS011;23441;50.856;6.076;2024-01-15T10:44:04;16.50;;;7.77;;
37593;SDS011;23441;50.856;6.076;2024-01-15T10:46:50;16.00;;;7.97;;
37593;SDS011;23441;50.856;6.076;2024-01-15T10:49:36;15.20;;;7.80;;
37593;SDS011;23441;50.856;6.076;2024-01-15T10:52:22;14.90;;;6.80;;
37593;SDS011;23441;50.856;6.076;2024-01-15T10:55:09;21.80;;;7.73;;
37593;SDS011;23441;50.856;6.076;2024-01-15T10:57:56;14.40;;;6.33;;
37593;SDS011;23441;50.856;6.076;2024-01-15T11:00:42;10.03;;;6.17;;
37593;SDS011;23441;50.856;6.076;2024-01-15T11:03:29;13.37;;;6.43;;
37593;SDS011;23441;50.856;6.076;2024-01-15T11:06:18;15.03;;;6.10;;
37593;SDS011;23441;50.856;6.076;2024-01-15T11:09:05;12.27;;;4.60;;
37593;SDS011;23441;50.856;6.076;2024-01-15T11:12:06;6.23;;;4.27;;
37593;SDS011;23441;50.856;6.076;2024-01-15T11:15:01;11.83;;;5.23;;
37593;SDS011;23441;50.856;6.076;2024-01-15T11:17:59;11.07;;;6.30;;
37593;SDS011;23441;50.856;6.076;2024-01-15T11:24:03;9.50;;;5.07;;
37593;SDS011;23441;50.856;6.076;2024-01-15T11:26:52;15.27;;;5.23;;
37593;SDS011;23441;50.856;6.076;2024-01-15T11:29:39;10.43;;;5.13;;
37593;SDS011;23441;50.856;6.076;2024-01-15T11:32:32;14.70;;;5.33;;
37593;SDS011;23441;50.856;6.076;2024-01-15T11:35:19;13.20;;;4.73;;
37593;SDS011;23441;50.856;6.076;2024-01-15T11:38:05;9.63;;;5.17;;
37593;SDS011;23441;50.856;6.076;2024-01-15T11:40:51;12.77;;;4.67;;
37593;SDS011;23441;50.856;6.076;2024-01-15T11:43:37;13.03;;;4.77;;
37593;SDS011;23441;50.856;6.076;2024-01-15T11:46:23;10.87;;;4.90;;
37593;SDS011;23441;50.856;6.076;2024-01-15T11:49:21;10.10;;;5.00;;
37593;SDS011;23441;50.856;6.076;2024-01-15T11:52:37;11.20;;;5.10;;
37593;SDS011;23441;50.856;6.076;2024-01-15T11:55:27;13.87;;;4.47;;
37593;SDS011;23441;50.856;6.076;2024-01-15T11:58:19;9.33;;;3.50;;
37593;SDS011;23441;50.856;6.076;2024-01-15T12:01:05;16.73;;;4.30;;
37593;SDS011;23441;50.856;6.076;2024-01-15T12:03:51;4.83;;;3.30;;
37593;SDS011;23441;50.856;6.076;2024-01-15T12:06:37;12.70;;;4.27;;
37593;SDS011;23441;50.856;6.076;2024-01-15T12:09:23;5.80;;;2.90;;
37593;SDS011;23441;50.856;6.076;2024-01-15T12:12:09;7.13;;;3.90;;
37593;SDS011;23441;50.856;6.076;2024-01-15T12:15:01;8.70;;;4.00;;
37593;SDS011;23441;50.856;6.076;2024-01-15T12:17:47;8.07;;;3.35;;
37593;SDS011;23441;50.856;6.076;2024-01-15T12:20:33;8.53;;;3.73;;
37593;SDS011;23441;50.856;6.076;2024-01-15T12:23:20;7.37;;;3.83;;
37593;SDS011;23441;50.856;6.076;2024-01-15T12:26:06;8.57;;;3.07;;
37593;SDS011;23441;50.856;6.076;2024-01-15T12:28:52;8.20;;;3.57;;
37593;SDS011;23441;50.856;6.076;2024-01-15T12:31:37;13.10;;;3.80;;
37593;SDS011;23441;50.856;6.076;2024-01-15T12:34:28;7.53;;;3.57;;
37593;SDS011;23441;50.856;6.076;2024-01-15T12:37:15;7.43;;;4.07;;
37593;SDS011;23441;50.856;6.076;2024-01-15T12:40:04;8.93;;;3.87;;
37593;SDS011;23441;50.856;6.076;2024-01-15T12:42:55;8.97;;;3.20;;
37593;SDS011;23441;50.856;6.076;2024-01-15T12:45:41;9.97;;;3.43;;
37593;SDS011;23441;50.856;6.076;2024-01-15T12:48:28;8.30;;;3.10;;
37593;SDS011;23441;50.856;6.076;2024-01-15T12:51:14;9.40;;;3.50;;
37593;SDS011;23441;50.856;6.076;2024-01-15T12:54:00;9.40;;;3.13;;
37593;SDS011;23441;50.856;6.076;2024-01-15T12:56:46;7.63;;;3.10;;
37593;SDS011;23441;50.856;6.076;2024-01-15T12:59:33;3.83;;;2.70;;
37593;SDS011;23441;50.856;6.076;2024-01-15T13:02:19;6.67;;;2.80;;
37593;SDS011;23441;50.856;6.076;2024-01-15T13:05:06;4.63;;;2.70;;
37593;SDS011;23441;50.856;6.076;2024-01-15T13:07:54;5.80;;;3.17;;
37593;SDS011;23441;50.856;6.076;2024-01-15T13:10:39;3.53;;;2.93;;
37593;SDS011;23441;50.856;6.076;2024-01-15T13:13:27;6.20;;;3.37;;
37593;SDS011;23441;50.856;6.076;2024-01-15T13:16:13;8.13;;;3.17;;
37593;SDS011;23441;50.856;6.076;2024-01-15T13:18:59;7.40;;;3.60;;
37593;SDS011;23441;50.856;6.076;2024-01-15T13:21:45;9.00;;;3.03;;
37593;SDS011;23441;50.856;6.076;2024-01-15T13:24:31;5.60;;;3.10;;
37593;SDS011;23441;50.856;6.076;2024-01-15T13:27:17;4.37;;;3.20;;
37593;SDS011;23441;50.856;6.076;2024-01-15T13:30:03;4.80;;;3.13;;
37593;SDS011;23441;50.856;6.076;2024-01-15T13:32:51;6.00;;;3.10;;
37593;SDS011;23441;50.856;6.076;2024-01-15T13:35:39;4.37;;;2.67;;
37593;SDS011;23441;50.856;6.076;2024-01-15T13:38:25;5.30;;;3.10;;
37593;SDS011;23441;50.856;6.076;2024-01-15T13:41:11;7.63;;;3.60;;
37593;SDS011;23441;50.856;6.076;2024-01-15T13:43:57;7.07;;;3.47;;
37593;SDS011;23441;50.856;6.076;2024-01-15T13:46:44;4.70;;;3.13;;
37593;SDS011;23441;50.856;6.076;2024-01-15T13:49:30;5.70;;;3.47;;
37593;SDS011;23441;50.856;6.076;2024-01-15T13:52:16;5.83;;;3.40;;
37593;SDS011;23441;50.856;6.076;2024-01-15T13:55:01;3.10;;;2.60;;
37593;SDS011;23441;50.856;6.076;2024-01-15T13:57:48;6.00;;;3.40;;
37593;SDS011;23441;50.856;6.076;2024-01-15T14:00:33;6.27;;;2.97;;
37593;SDS011;23441;50.856;6.076;2024-01-15T14:03:19;4.87;;;2.70;;
37593;SDS011;23441;50.856;6.076;2024-01-15T14:06:05;6.93;;;3.50;;
37593;SDS011;23441;50.856;6.076;2024-01-15T14:08:54;3.63;;;3.23;;
37593;SDS011;23441;50.856;6.076;2024-01-15T14:11:40;8.23;;;3.40;;
37593;SDS011;23441;50.856;6.076;2024-01-15T14:14:26;5.87;;;3.43;;
37593;SDS011;23441;50.856;6.076;2024-01-15T14:17:12;4.30;;;3.83;;
37593;SDS011;23441;50.856;6.076;2024-01-15T14:19:58;4.63;;;3.93;;
37593;SDS011;23441;50.856;6.076;2024-01-15T14:22:44;5.90;;;3.97;;
37593;SDS011;23441;50.856;6.076;2024-01-15T14:25:30;8.87;;;4.03;;
37593;SDS011;23441;50.856;6.076;2024-01-15T14:28:16;4.80;;;4.30;;
37593;SDS011;23441;50.856;6.076;2024-01-15T14:31:02;8.27;;;3.30;;
37593;SDS011;23441;50.856;6.076;2024-01-15T14:33:50;6.37;;;3.53;;
37593;SDS011;23441;50.856;6.076;2024-01-15T14:36:36;5.47;;;3.30;;
37593;SDS011;23441;50.856;6.076;2024-01-15T14:39:22;4.87;;;3.00;;
37593;SDS011;23441;50.856;6.076;2024-01-15T14:42:09;8.40;;;3.43;;
37593;SDS011;23441;50.856;6.076;2024-01-15T14:44:55;4.27;;;3.07;;
37593;SDS011;23441;50.856;6.076;2024-01-15T14:47:41;5.00;;;3.07;;
37593;SDS011;23441;50.856;6.076;2024-01-15T14:50:27;6.40;;;2.83;;
37593;SDS011;23441;50.856;6.076;2024-01-15T14:53:13;7.07;;;2.70;;
37593;SDS011;23441;50.856;6.076;2024-01-15T14:55:59;4.43;;;3.07;;
37593;SDS011;23441;50.856;6.076;2024-01-15T14:58:47;3.70;;;2.73;;
37593;SDS011;23441;50.856;6.076;2024-01-15T15:01:34;5.63;;;3.13;;
37593;SDS011;23441;50.856;6.076;2024-01-15T15:04:20;5.73;;;2.90;;
37593;SDS011;23441;50.856;6.076;2024-01-15T15:07:06;3.43;;;2.60;;
37593;SDS011;23441;50.856;6.076;2024-01-15T15:09:51;4.67;;;2.70;;
37593;SDS011;23441;50.856;6.076;2024-01-15T15:12:37;3.63;;;2.90;;
37593;SDS011;23441;50.856;6.076;2024-01-15T15:15:23;5.40;;;3.17;;
37593;SDS011;23441;50.856;6.076;2024-01-15T15:18:09;7.40;;;3.93;;
37593;SDS011;23441;50.856;6.076;2024-01-15T15:20:55;6.07;;;3.90;;
37593;SDS011;23441;50.856;6.076;2024-01-15T15:23:41;4.33;;;3.63;;
37593;SDS011;23441;50.856;6.076;2024-01-15T15:26:27;7.20;;;4.07;;
37593;SDS011;23441;50.856;6.076;2024-01-15T15:29:13;4.33;;;3.57;;
37593;SDS011;23441;50.856;6.076;2024-01-15T15:32:02;7.17;;;3.87;;
37593;SDS011;23441;50.856;6.076;2024-01-15T15:34:48;9.13;;;3.63;;
37593;SDS011;23441;50.856;6.076;2024-01-15T15:37:34;6.27;;;3.77;;
37593;SDS011;23441;50.856;6.076;2024-01-15T15:40:20;8.13;;;3.77;;
37593;SDS011;23441;50.856;6.076;2024-01-15T15:43:06;7.87;;;4.40;;
37593;SDS011;23441;50.856;6.076;2024-01-15T15:45:52;6.33;;;3.53;;
37593;SDS011;23441;50.856;6.076;2024-01-15T15:48:38;6.60;;;3.97;;
37593;SDS011;23441;50.856;6.076;2024-01-15T15:51:24;7.10;;;3.80;;
37593;SDS011;23441;50.856;6.076;2024-01-15T15:54:10;7.80;;;3.53;;
37593;SDS011;23441;50.856;6.076;2024-01-15T15:56:56;7.80;;;3.90;;
37593;SDS011;23441;50.856;6.076;2024-01-15T15:59:42;6.33;;;3.80;;
37593;SDS011;23441;50.856;6.076;2024-01-15T16:02:28;6.00;;;3.53;;
37593;SDS011;23441;50.856;6.076;2024-01-15T16:05:14;5.13;;;3.40;;
37593;SDS011;23441;50.856;6.076;2024-01-15T16:08:00;6.37;;;3.53;;
37593;SDS011;23441;50.856;6.076;2024-01-15T16:10:46;9.57;;;4.20;;
37593;SDS011;23441;50.856;6.076;2024-01-15T16:13:36;8.00;;;4.13;;
37593;SDS011;23441;50.856;6.076;2024-01-15T16:16:23;5.87;;;3.97;;
37593;SDS011;23441;50.856;6.076;2024-01-15T16:19:09;5.23;;;3.77;;
37593;SDS011;23441;50.856;6.076;2024-01-15T16:21:55;6.80;;;3.70;;
37593;SDS011;23441;50.856;6.076;2024-01-15T16:24:41;6.23;;;4.30;;
37593;SDS011;23441;50.856;6.076;2024-01-15T16:27:27;6.80;;;4.43;;